This is the latest recevied weather packets stored in our database for station/object LZ0VRC-10. If no packets are shown the sender has not sent any weather packets the latest 10 day(s).
| Time | Temp. | Humidity | Pressure | Rain* | Wind** | Luminosity | Snow |
|---|---|---|---|---|---|---|---|
| 1777655442 | 7.78° C | 57% | 1025.3 hPa | - | - | - | - |
| 1777655437 | 7.78° C | 57% | 1025.3 hPa | - | - | - | - |
| 1777654542 | 8.89° C | 53% | 1025.2 hPa | - | - | - | - |
| 1777654537 | 8.89° C | 53% | 1025.2 hPa | - | - | - | - |
| 1777653637 | 10° C | 50% | 1025.1 hPa | - | - | - | - |
| 1777652742 | 10° C | 49% | 1025.2 hPa | - | - | - | - |
| 1777652737 | 10° C | 49% | 1025.2 hPa | - | - | - | - |
| 1777651842 | 11.11° C | 45% | 1025.2 hPa | - | - | - | - |
| 1777651837 | 11.11° C | 45% | 1025.2 hPa | - | - | - | - |
| 1777650942 | 13.33° C | 41% | 1025.2 hPa | - | - | - | - |
| 1777650937 | 13.33° C | 41% | 1025.2 hPa | - | - | - | - |
| 1777650037 | 12.78° C | 41% | 1025.3 hPa | - | - | - | - |
| 1777649145 | 11.67° C | 46% | 1025.4 hPa | - | - | - | - |
| 1777649137 | 11.67° C | 46% | 1025.4 hPa | - | - | - | - |
| 1777648242 | 10° C | 50% | 1025.5 hPa | - | - | - | - |
| 1777648237 | 10° C | 50% | 1025.5 hPa | - | - | - | - |
| 1777647342 | 10° C | 49% | 1025.6 hPa | - | - | - | - |
| 1777647337 | 10° C | 49% | 1025.6 hPa | - | - | - | - |
| 1777646442 | 11.11° C | 45% | 1025.5 hPa | - | - | - | - |
| 1777646438 | 11.11° C | 45% | 1025.5 hPa | - | - | - | - |
| 1777645537 | 13.33° C | 41% | 1025.6 hPa | - | - | - | - |
| 1777644642 | 12.78° C | 40% | 1025.6 hPa | - | - | - | - |
| 1777644637 | 12.78° C | 40% | 1025.6 hPa | - | - | - | - |
| 1777643737 | 11.67° C | 39% | 1025.7 hPa | - | - | - | - |
| 1777642837 | 12.78° C | 37% | 1025.7 hPa | - | - | - | - |
* Rain since midnight (hover to see other rain measurements)
** Current wind speed in m/s (hover to see current wind gust speed)